Descripción del Accidente ASN 14 FEB 2021 de Havilland Canada DHC-6 Twin Otter 300 8Q-RAE - Malé-Velana International Airport (MLE)
ASN logo
 

Estado:Accident investigation report completed and information captured
Fecha:domingo 14 febrero 2021
Hora:07:32
Tipo:Silhouette image of generic DHC6 model; specific model in this crash may look slightly different
de Havilland Canada DHC-6 Twin Otter 300
Operador:Manta Air
Registración: 8Q-RAE
Numéro de série: 617
Año de Construcción: 1979
Horas Totales de la Célula:43932
Ciclos:78854
Motores: 2 Pratt & Whitney Canada PT6A-27
Tripulación:Fatalidades: 0 / Ocupantes: 3
Pasajeros:Fatalidades: 0 / Ocupantes: 6
Total:Fatalidades: 0 / Ocupantes: 9
Daños en la Aeronave: Considerable
Ubicación:Malé-Velana International Airport (MLE) (   Maldivas)
Fase: Aterrizaje (LDG)
Naturaleza:Vuelo Doméstico Programado
Aeropuerto de Salida:COMO Maalifushi Resort, Maldivas
Aeropuerto de Llegada:Malé-Velana International Airport (MLE/VRMM), Maldivas
Número de Vuelo:NR117
Descripción:
The float-equipped DHC-6 aircraft operated by Manta Air was on a domestic passenger flight from Como Maalifushi Resort to Velana International Airport.
The aircraft touched down on the water at Velana International Airport and veered right, causing the right-hand wing to dug into the water. The aircraft swung and flipped upside down.

Probable Cause:

Causes / Contributing Factors:
The AICC determines that the causes / contributing factors of this accident were:
a. FO maintained a flatter than normal attitude of the aircraft at touch down;
b. FO released the controls too early for an aircraft operated on floats due to his flying motor skills on a land aircraft which require release of the control at touchdown;
c. Loss of control of the aircraft immediately after touchdown;
d. PIC did not take over the controls from FO in a timely manner.

Accident investigation:

cover
Investigating agency: AICC Maldives
Status: Investigation completed
Duration: 1 year and 2 months
Accident number: 2021/01
Download report: Final report

Fuentes:
» feshun.mv
» Manta Air

METAR Weather report:
01:00 UTC / 06:00 local time:
VRMM 140100Z 09009KT 9000 FEW019 27/23 Q1011 NOSIG

02:00 UTC / 07:00 local time:
VRMM 140200Z 09009KT 9000 FEW018 28/24 Q1012 NOSIG

03:00 UTC / 08:00 local time:
VRMM 140300Z 09008KT 9000 FEW018 29/24 Q1013 NOSIG


Subsiguiente / acciones de seguridad

AICC Maldives issued 8 Safety Recommendations

Show all...

Fotos

Add your photo of this accident or aircraft

Map
This map shows the airport of departure and the intended destination of the flight. The line between the airports does not display the exact flight path.
Distance from COMO Maalifushi Resort to Malé-Velana International Airport as the crow flies is 209 km (131 miles).
Accident location: Exact; as reported in the official accident report.

This information is not presented as the Flight Safety Foundation or the Aviation Safety Network’s opinion as to the cause of the accident. It is preliminary and is based on the facts as they are known at this time.
languages: languages

Share

The Aviation Safety Network is an exclusive service provided by:
Quick Links:

CONNECT WITH US: FSF on social media FSF Facebook FSF Twitter FSF Youtube FSF LinkedIn FSF Instagram

©2024 Flight Safety Foundation

1920 Ballenger Av, 4th Fl.
Alexandria, Virginia 22314
www.FlightSafety.org